Yellowstone Natl Park, Wyoming
Current Conditions -  °F | °C
As of 9:56 AM on Sunday 23 Nov 2014 (Local Time) from KDIJ Reporting Station
Overcast Overcast  
Wind Chill: 25°   Ceiling: 5000
Heat Index: 25°   Visibility: 10mi
Dew Point: 15°   Wind: 3mph
Humidity: 66%   Direction: NA
Pressure: 30.09"   Gusts: NA
Location:  44.5°N, 110.58°W
Report Text: KDIJ 231656Z AUTO VRB03KT 10SM OVC050 M04/M09 A3009 RMK AO2 T10381094 SLP209
Loading
Personal Weather Stations






























Interactive Weather Map New forecast layout! Learn more

10-Day Weather Forecast

Advertisements
Track Severe Weather on mobile